sensor_id;sensor_type;location;lat;lon;timestamp;P1;durP1;ratioP1;P2;durP2;ratioP2
45392;SDS011;31129;44.810;10.334;2023-06-05T00:01:28;15.75;;;10.75;;
45392;SDS011;31129;44.810;10.334;2023-06-05T00:03:54;12.73;;;10.73;;
45392;SDS011;31129;44.810;10.334;2023-06-05T00:06:21;17.30;;;12.52;;
45392;SDS011;31129;44.810;10.334;2023-06-05T00:08:46;12.40;;;10.68;;
45392;SDS011;31129;44.810;10.334;2023-06-05T00:11:12;14.27;;;11.93;;
45392;SDS011;31129;44.810;10.334;2023-06-05T00:13:38;13.13;;;10.13;;
45392;SDS011;31129;44.810;10.334;2023-06-05T00:16:03;12.05;;;10.20;;
45392;SDS011;31129;44.810;10.334;2023-06-05T00:18:29;17.77;;;10.43;;
45392;SDS011;31129;44.810;10.334;2023-06-05T00:20:55;15.73;;;10.27;;
45392;SDS011;31129;44.810;10.334;2023-06-05T00:23:21;15.55;;;10.18;;
45392;SDS011;31129;44.810;10.334;2023-06-05T00:25:47;14.95;;;10.13;;
45392;SDS011;31129;44.810;10.334;2023-06-05T00:28:12;16.65;;;10.40;;
45392;SDS011;31129;44.810;10.334;2023-06-05T00:30:38;11.77;;;9.93;;
45392;SDS011;31129;44.810;10.334;2023-06-05T00:33:04;16.85;;;10.90;;
45392;SDS011;31129;44.810;10.334;2023-06-05T00:35:29;13.15;;;10.05;;
45392;SDS011;31129;44.810;10.334;2023-06-05T00:37:55;14.15;;;11.23;;
45392;SDS011;31129;44.810;10.334;2023-06-05T00:40:21;15.52;;;11.20;;
45392;SDS011;31129;44.810;10.334;2023-06-05T00:42:47;15.40;;;11.43;;
45392;SDS011;31129;44.810;10.334;2023-06-05T00:45:13;12.95;;;10.45;;
45392;SDS011;31129;44.810;10.334;2023-06-05T00:47:38;13.55;;;10.18;;
45392;SDS011;31129;44.810;10.334;2023-06-05T00:50:04;14.38;;;11.52;;
45392;SDS011;31129;44.810;10.334;2023-06-05T00:52:32;12.90;;;11.43;;
45392;SDS011;31129;44.810;10.334;2023-06-05T00:54:58;11.90;;;10.60;;
45392;SDS011;31129;44.810;10.334;2023-06-05T00:57:25;16.00;;;11.90;;
45392;SDS011;31129;44.810;10.334;2023-06-05T01:02:18;20.73;;;12.20;;
45392;SDS011;31129;44.810;10.334;2023-06-05T01:04:46;17.63;;;12.40;;
45392;SDS011;31129;44.810;10.334;2023-06-05T01:07:15;16.90;;;14.00;;
45392;SDS011;31129;44.810;10.334;2023-06-05T01:09:41;21.77;;;14.00;;
45392;SDS011;31129;44.810;10.334;2023-06-05T01:14:48;17.73;;;12.75;;
45392;SDS011;31129;44.810;10.334;2023-06-05T01:17:14;20.98;;;13.13;;
45392;SDS011;31129;44.810;10.334;2023-06-05T01:19:44;18.63;;;13.68;;
45392;SDS011;31129;44.810;10.334;2023-06-05T01:22:10;19.75;;;13.45;;
45392;SDS011;31129;44.810;10.334;2023-06-05T01:24:37;20.77;;;13.50;;
45392;SDS011;31129;44.810;10.334;2023-06-05T01:27:15;22.58;;;13.98;;
45392;SDS011;31129;44.810;10.334;2023-06-05T01:35:06;18.52;;;13.85;;
45392;SDS011;31129;44.810;10.334;2023-06-05T01:37:34;17.80;;;14.38;;
45392;SDS011;31129;44.810;10.334;2023-06-05T01:40:07;18.30;;;14.90;;
45392;SDS011;31129;44.810;10.334;2023-06-05T01:42:40;14.95;;;13.40;;
45392;SDS011;31129;44.810;10.334;2023-06-05T01:45:07;20.45;;;15.15;;
45392;SDS011;31129;44.810;10.334;2023-06-05T01:47:38;17.33;;;14.65;;
45392;SDS011;31129;44.810;10.334;2023-06-05T01:50:06;20.13;;;14.80;;
45392;SDS011;31129;44.810;10.334;2023-06-05T01:52:33;19.80;;;14.88;;
45392;SDS011;31129;44.810;10.334;2023-06-05T01:55:05;19.65;;;15.10;;
45392;SDS011;31129;44.810;10.334;2023-06-05T01:57:31;18.50;;;13.93;;
45392;SDS011;31129;44.810;10.334;2023-06-05T01:59:59;17.58;;;13.63;;
45392;SDS011;31129;44.810;10.334;2023-06-05T02:02:39;17.52;;;14.27;;
45392;SDS011;31129;44.810;10.334;2023-06-05T02:05:08;16.08;;;14.00;;
45392;SDS011;31129;44.810;10.334;2023-06-05T02:07:36;18.45;;;14.18;;
45392;SDS011;31129;44.810;10.334;2023-06-05T02:10:07;17.80;;;14.25;;
45392;SDS011;31129;44.810;10.334;2023-06-05T02:12:34;15.52;;;13.82;;
45392;SDS011;31129;44.810;10.334;2023-06-05T02:15:03;18.80;;;13.75;;
45392;SDS011;31129;44.810;10.334;2023-06-05T02:17:30;17.43;;;13.37;;
45392;SDS011;31129;44.810;10.334;2023-06-05T02:19:56;18.98;;;13.98;;
45392;SDS011;31129;44.810;10.334;2023-06-05T02:22:21;20.42;;;14.38;;
45392;SDS011;31129;44.810;10.334;2023-06-05T02:24:49;15.73;;;14.05;;
45392;SDS011;31129;44.810;10.334;2023-06-05T02:27:19;21.40;;;14.77;;
45392;SDS011;31129;44.810;10.334;2023-06-05T02:29:45;21.95;;;15.52;;
45392;SDS011;31129;44.810;10.334;2023-06-05T02:32:10;24.90;;;15.43;;
45392;SDS011;31129;44.810;10.334;2023-06-05T02:34:36;22.77;;;14.80;;
45392;SDS011;31129;44.810;10.334;2023-06-05T02:37:03;19.52;;;15.25;;
45392;SDS011;31129;44.810;10.334;2023-06-05T02:39:28;15.82;;;13.88;;
45392;SDS011;31129;44.810;10.334;2023-06-05T02:41:57;15.85;;;14.18;;
45392;SDS011;31129;44.810;10.334;2023-06-05T02:44:23;18.48;;;14.60;;
45392;SDS011;31129;44.810;10.334;2023-06-05T02:46:48;17.05;;;15.02;;
45392;SDS011;31129;44.810;10.334;2023-06-05T02:49:14;19.25;;;14.23;;
45392;SDS011;31129;44.810;10.334;2023-06-05T02:51:40;19.58;;;14.57;;
45392;SDS011;31129;44.810;10.334;2023-06-05T02:54:06;18.35;;;14.15;;
45392;SDS011;31129;44.810;10.334;2023-06-05T02:56:32;15.10;;;13.60;;
45392;SDS011;31129;44.810;10.334;2023-06-05T02:58:58;19.85;;;13.57;;
45392;SDS011;31129;44.810;10.334;2023-06-05T03:01:24;17.08;;;13.40;;
45392;SDS011;31129;44.810;10.334;2023-06-05T03:03:50;17.38;;;14.18;;
45392;SDS011;31129;44.810;10.334;2023-06-05T03:06:18;17.45;;;13.43;;
45392;SDS011;31129;44.810;10.334;2023-06-05T03:08:46;19.35;;;14.23;;
45392;SDS011;31129;44.810;10.334;2023-06-05T03:11:16;18.83;;;14.35;;
45392;SDS011;31129;44.810;10.334;2023-06-05T03:13:42;17.05;;;14.68;;
45392;SDS011;31129;44.810;10.334;2023-06-05T03:16:08;22.27;;;16.15;;
45392;SDS011;31129;44.810;10.334;2023-06-05T03:18:38;20.70;;;15.73;;
45392;SDS011;31129;44.810;10.334;2023-06-05T03:21:04;21.45;;;15.85;;
45392;SDS011;31129;44.810;10.334;2023-06-05T03:23:29;18.10;;;16.15;;
45392;SDS011;31129;44.810;10.334;2023-06-05T03:25:58;23.20;;;16.48;;
45392;SDS011;31129;44.810;10.334;2023-06-05T03:28:25;23.23;;;17.63;;
45392;SDS011;31129;44.810;10.334;2023-06-05T03:30:53;24.27;;;16.35;;
45392;SDS011;31129;44.810;10.334;2023-06-05T03:33:22;23.77;;;17.88;;
45392;SDS011;31129;44.810;10.334;2023-06-05T03:35:50;24.15;;;17.70;;
45392;SDS011;31129;44.810;10.334;2023-06-05T03:38:17;22.33;;;18.92;;
45392;SDS011;31129;44.810;10.334;2023-06-05T03:40:44;20.63;;;18.23;;
45392;SDS011;31129;44.810;10.334;2023-06-05T03:43:12;27.63;;;20.23;;
45392;SDS011;31129;44.810;10.334;2023-06-05T03:45:39;27.33;;;21.65;;
45392;SDS011;31129;44.810;10.334;2023-06-05T03:48:09;30.48;;;20.95;;
45392;SDS011;31129;44.810;10.334;2023-06-05T03:50:37;24.77;;;20.80;;
45392;SDS011;31129;44.810;10.334;2023-06-05T03:53:04;26.00;;;21.02;;
45392;SDS011;31129;44.810;10.334;2023-06-05T03:55:31;26.38;;;21.55;;
45392;SDS011;31129;44.810;10.334;2023-06-05T03:58:09;27.40;;;20.95;;
45392;SDS011;31129;44.810;10.334;2023-06-05T04:00:41;25.98;;;21.83;;
45392;SDS011;31129;44.810;10.334;2023-06-05T04:05:35;26.35;;;17.65;;
45392;SDS011;31129;44.810;10.334;2023-06-05T04:08:09;27.30;;;19.38;;
45392;SDS011;31129;44.810;10.334;2023-06-05T04:10:36;24.27;;;17.92;;
45392;SDS011;31129;44.810;10.334;2023-06-05T04:13:03;26.48;;;17.85;;
45392;SDS011;31129;44.810;10.334;2023-06-05T04:15:30;24.70;;;19.50;;
45392;SDS011;31129;44.810;10.334;2023-06-05T04:17:55;19.02;;;16.48;;
45392;SDS011;31129;44.810;10.334;2023-06-05T04:20:22;19.48;;;15.52;;
45392;SDS011;31129;44.810;10.334;2023-06-05T04:22:48;20.63;;;16.50;;
45392;SDS011;31129;44.810;10.334;2023-06-05T04:25:14;23.38;;;15.32;;
45392;SDS011;31129;44.810;10.334;2023-06-05T04:27:42;18.63;;;13.57;;
45392;SDS011;31129;44.810;10.334;2023-06-05T04:30:10;23.30;;;15.93;;
45392;SDS011;31129;44.810;10.334;2023-06-05T04:32:37;18.40;;;14.10;;
45392;SDS011;31129;44.810;10.334;2023-06-05T04:35:05;24.57;;;17.63;;
45392;SDS011;31129;44.810;10.334;2023-06-05T04:37:31;22.75;;;19.08;;
45392;SDS011;31129;44.810;10.334;2023-06-05T04:40:01;23.17;;;17.90;;
45392;SDS011;31129;44.810;10.334;2023-06-05T04:42:35;23.13;;;18.92;;
45392;SDS011;31129;44.810;10.334;2023-06-05T04:45:03;22.92;;;17.75;;
45392;SDS011;31129;44.810;10.334;2023-06-05T04:47:34;21.70;;;17.70;;
45392;SDS011;31129;44.810;10.334;2023-06-05T04:50:00;26.15;;;19.35;;
45392;SDS011;31129;44.810;10.334;2023-06-05T04:52:31;25.60;;;20.27;;
45392;SDS011;31129;44.810;10.334;2023-06-05T04:54:58;26.58;;;20.88;;
45392;SDS011;31129;44.810;10.334;2023-06-05T04:59:52;30.85;;;20.95;;
45392;SDS011;31129;44.810;10.334;2023-06-05T05:02:21;24.00;;;19.73;;
45392;SDS011;31129;44.810;10.334;2023-06-05T05:04:49;22.80;;;15.45;;
45392;SDS011;31129;44.810;10.334;2023-06-05T05:07:15;22.88;;;17.20;;
45392;SDS011;31129;44.810;10.334;2023-06-05T05:09:42;27.00;;;16.73;;
45392;SDS011;31129;44.810;10.334;2023-06-05T05:12:09;24.90;;;17.45;;
45392;SDS011;31129;44.810;10.334;2023-06-05T05:14:40;28.10;;;18.23;;
45392;SDS011;31129;44.810;10.334;2023-06-05T05:17:06;29.10;;;17.92;;
45392;SDS011;31129;44.810;10.334;2023-06-05T05:19:33;29.30;;;17.33;;
45392;SDS011;31129;44.810;10.334;2023-06-05T05:22:00;26.42;;;16.75;;
45392;SDS011;31129;44.810;10.334;2023-06-05T05:24:26;23.35;;;16.55;;
45392;SDS011;31129;44.810;10.334;2023-06-05T05:26:51;23.38;;;15.15;;
45392;SDS011;31129;44.810;10.334;2023-06-05T05:29:17;22.70;;;18.13;;
45392;SDS011;31129;44.810;10.334;2023-06-05T05:31:43;24.88;;;17.17;;
45392;SDS011;31129;44.810;10.334;2023-06-05T05:34:10;20.00;;;13.50;;
45392;SDS011;31129;44.810;10.334;2023-06-05T05:36:36;21.13;;;15.18;;
45392;SDS011;31129;44.810;10.334;2023-06-05T05:39:04;21.25;;;13.65;;
45392;SDS011;31129;44.810;10.334;2023-06-05T05:41:33;18.15;;;13.27;;
45392;SDS011;31129;44.810;10.334;2023-06-05T05:43:59;21.83;;;13.60;;
45392;SDS011;31129;44.810;10.334;2023-06-05T05:46:25;19.42;;;14.88;;
45392;SDS011;31129;44.810;10.334;2023-06-05T05:48:50;22.58;;;16.98;;
45392;SDS011;31129;44.810;10.334;2023-06-05T05:51:16;21.42;;;14.30;;
45392;SDS011;31129;44.810;10.334;2023-06-05T05:53:42;20.85;;;13.93;;
45392;SDS011;31129;44.810;10.334;2023-06-05T05:56:07;19.35;;;14.00;;
45392;SDS011;31129;44.810;10.334;2023-06-05T05:58:33;18.15;;;13.90;;
45392;SDS011;31129;44.810;10.334;2023-06-05T06:00:58;20.60;;;14.38;;
45392;SDS011;31129;44.810;10.334;2023-06-05T06:03:27;18.52;;;14.77;;
45392;SDS011;31129;44.810;10.334;2023-06-05T06:05:53;16.55;;;13.73;;
45392;SDS011;31129;44.810;10.334;2023-06-05T06:08:19;16.50;;;12.07;;
45392;SDS011;31129;44.810;10.334;2023-06-05T06:10:46;12.50;;;10.82;;
45392;SDS011;31129;44.810;10.334;2023-06-05T06:13:13;15.05;;;12.50;;
45392;SDS011;31129;44.810;10.334;2023-06-05T06:15:38;18.10;;;14.57;;
45392;SDS011;31129;44.810;10.334;2023-06-05T06:18:06;19.42;;;14.43;;
45392;SDS011;31129;44.810;10.334;2023-06-05T06:20:32;21.15;;;14.23;;
45392;SDS011;31129;44.810;10.334;2023-06-05T06:23:01;18.48;;;15.00;;
45392;SDS011;31129;44.810;10.334;2023-06-05T06:25:28;17.42;;;15.45;;
45392;SDS011;31129;44.810;10.334;2023-06-05T06:28:00;16.55;;;14.82;;
45392;SDS011;31129;44.810;10.334;2023-06-05T06:30:26;16.92;;;14.05;;
45392;SDS011;31129;44.810;10.334;2023-06-05T06:32:55;19.92;;;16.05;;
45392;SDS011;31129;44.810;10.334;2023-06-05T06:35:26;24.65;;;17.25;;
45392;SDS011;31129;44.810;10.334;2023-06-05T06:37:52;20.42;;;16.13;;
45392;SDS011;31129;44.810;10.334;2023-06-05T06:40:19;18.65;;;15.20;;
45392;SDS011;31129;44.810;10.334;2023-06-05T06:42:45;17.30;;;13.77;;
45392;SDS011;31129;44.810;10.334;2023-06-05T06:45:20;20.02;;;15.73;;
45392;SDS011;31129;44.810;10.334;2023-06-05T06:47:46;19.10;;;16.50;;
45392;SDS011;31129;44.810;10.334;2023-06-05T06:50:12;20.15;;;17.63;;
45392;SDS011;31129;44.810;10.334;2023-06-05T06:52:40;21.58;;;18.50;;
45392;SDS011;31129;44.810;10.334;2023-06-05T06:55:06;20.92;;;18.73;;
45392;SDS011;31129;44.810;10.334;2023-06-05T06:57:32;19.48;;;17.38;;
45392;SDS011;31129;44.810;10.334;2023-06-05T06:59:57;22.48;;;18.73;;
45392;SDS011;31129;44.810;10.334;2023-06-05T07:02:23;19.20;;;15.95;;
45392;SDS011;31129;44.810;10.334;2023-06-05T07:04:50;20.92;;;17.27;;
45392;SDS011;31129;44.810;10.334;2023-06-05T07:07:18;25.55;;;19.70;;
45392;SDS011;31129;44.810;10.334;2023-06-05T07:09:49;29.10;;;20.27;;
45392;SDS011;31129;44.810;10.334;2023-06-05T07:12:16;24.45;;;19.38;;
45392;SDS011;31129;44.810;10.334;2023-06-05T07:14:47;24.65;;;19.75;;
45392;SDS011;31129;44.810;10.334;2023-06-05T07:17:13;23.48;;;19.17;;
45392;SDS011;31129;44.810;10.334;2023-06-05T07:19:39;25.98;;;18.75;;
45392;SDS011;31129;44.810;10.334;2023-06-05T07:22:05;23.58;;;19.23;;
45392;SDS011;31129;44.810;10.334;2023-06-05T07:24:31;24.83;;;18.45;;
45392;SDS011;31129;44.810;10.334;2023-06-05T07:26:59;22.23;;;17.60;;
45392;SDS011;31129;44.810;10.334;2023-06-05T07:31:55;21.10;;;15.00;;
45392;SDS011;31129;44.810;10.334;2023-06-05T07:34:22;16.83;;;14.73;;
45392;SDS011;31129;44.810;10.334;2023-06-05T07:36:51;18.55;;;14.90;;
45392;SDS011;31129;44.810;10.334;2023-06-05T07:39:18;18.35;;;13.43;;
45392;SDS011;31129;44.810;10.334;2023-06-05T07:41:45;16.10;;;14.38;;
45392;SDS011;31129;44.810;10.334;2023-06-05T07:44:11;13.82;;;12.32;;
45392;SDS011;31129;44.810;10.334;2023-06-05T07:46:41;15.80;;;14.10;;
45392;SDS011;31129;44.810;10.334;2023-06-05T07:49:07;15.13;;;13.25;;
45392;SDS011;31129;44.810;10.334;2023-06-05T07:51:34;18.70;;;15.88;;
45392;SDS011;31129;44.810;10.334;2023-06-05T07:54:03;18.08;;;14.85;;
45392;SDS011;31129;44.810;10.334;2023-06-05T07:56:30;20.77;;;15.60;;
45392;SDS011;31129;44.810;10.334;2023-06-05T07:58:57;16.48;;;13.63;;
45392;SDS011;31129;44.810;10.334;2023-06-05T08:01:22;16.48;;;13.63;;
45392;SDS011;31129;44.810;10.334;2023-06-05T08:03:48;17.77;;;12.95;;
45392;SDS011;31129;44.810;10.334;2023-06-05T08:06:14;17.52;;;11.50;;
45392;SDS011;31129;44.810;10.334;2023-06-05T08:08:41;8.23;;;6.95;;
45392;SDS011;31129;44.810;10.334;2023-06-05T08:11:09;13.00;;;6.40;;
45392;SDS011;31129;44.810;10.334;2023-06-05T08:13:36;10.20;;;6.28;;
45392;SDS011;31129;44.810;10.334;2023-06-05T08:16:03;9.15;;;7.30;;
45392;SDS011;31129;44.810;10.334;2023-06-05T08:18:29;9.20;;;6.65;;
45392;SDS011;31129;44.810;10.334;2023-06-05T08:20:55;10.95;;;7.55;;
45392;SDS011;31129;44.810;10.334;2023-06-05T08:23:20;10.77;;;6.70;;
45392;SDS011;31129;44.810;10.334;2023-06-05T08:25:46;13.00;;;8.68;;
45392;SDS011;31129;44.810;10.334;2023-06-05T08:28:13;12.52;;;10.43;;
45392;SDS011;31129;44.810;10.334;2023-06-05T08:31:06;10.90;;;9.70;;
45392;SDS011;31129;44.810;10.334;2023-06-05T08:33:35;10.38;;;9.35;;
45392;SDS011;31129;44.810;10.334;2023-06-05T08:36:02;11.60;;;10.40;;
45392;SDS011;31129;44.810;10.334;2023-06-05T08:38:29;11.90;;;10.23;;
45392;SDS011;31129;44.810;10.334;2023-06-05T08:41:13;17.60;;;10.55;;
45392;SDS011;31129;44.810;10.334;2023-06-05T08:43:41;12.00;;;9.50;;
45392;SDS011;31129;44.810;10.334;2023-06-05T08:46:11;11.55;;;10.25;;
45392;SDS011;31129;44.810;10.334;2023-06-05T08:48:47;11.73;;;9.88;;
45392;SDS011;31129;44.810;10.334;2023-06-05T08:51:17;11.52;;;10.05;;
45392;SDS011;31129;44.810;10.334;2023-06-05T08:53:48;14.00;;;10.40;;
45392;SDS011;31129;44.810;10.334;2023-06-05T08:56:29;11.68;;;9.40;;
45392;SDS011;31129;44.810;10.334;2023-06-05T08:58:58;14.90;;;9.95;;
45392;SDS011;31129;44.810;10.334;2023-06-05T09:03:50;16.10;;;12.98;;
45392;SDS011;31129;44.810;10.334;2023-06-05T09:06:22;15.00;;;13.38;;
45392;SDS011;31129;44.810;10.334;2023-06-05T09:08:48;19.48;;;12.85;;
45392;SDS011;31129;44.810;10.334;2023-06-05T09:11:24;16.08;;;14.43;;
45392;SDS011;31129;44.810;10.334;2023-06-05T09:13:53;12.05;;;10.73;;
45392;SDS011;31129;44.810;10.334;2023-06-05T09:18:56;13.48;;;9.30;;
45392;SDS011;31129;44.810;10.334;2023-06-05T09:21:24;11.57;;;10.40;;
45392;SDS011;31129;44.810;10.334;2023-06-05T09:29:22;12.63;;;11.40;;
45392;SDS011;31129;44.810;10.334;2023-06-05T09:31:50;15.23;;;11.98;;
45392;SDS011;31129;44.810;10.334;2023-06-05T09:34:36;13.27;;;11.93;;
45392;SDS011;31129;44.810;10.334;2023-06-05T09:37:09;13.27;;;11.30;;
45392;SDS011;31129;44.810;10.334;2023-06-05T09:39:36;11.93;;;10.70;;
45392;SDS011;31129;44.810;10.334;2023-06-05T09:42:03;12.90;;;10.18;;
45392;SDS011;31129;44.810;10.334;2023-06-05T09:44:30;13.82;;;10.65;;
45392;SDS011;31129;44.810;10.334;2023-06-05T09:49:26;11.48;;;10.27;;
45392;SDS011;31129;44.810;10.334;2023-06-05T09:51:54;12.00;;;9.55;;
45392;SDS011;31129;44.810;10.334;2023-06-05T09:54:21;11.10;;;9.95;;
45392;SDS011;31129;44.810;10.334;2023-06-05T09:56:49;13.43;;;9.82;;
45392;SDS011;31129;44.810;10.334;2023-06-05T09:59:21;9.32;;;8.20;;
45392;SDS011;31129;44.810;10.334;2023-06-05T10:01:48;9.57;;;8.77;;
45392;SDS011;31129;44.810;10.334;2023-06-05T10:04:15;11.43;;;8.77;;
45392;SDS011;31129;44.810;10.334;2023-06-05T10:06:43;9.70;;;8.75;;
45392;SDS011;31129;44.810;10.334;2023-06-05T10:09:09;11.23;;;8.90;;
45392;SDS011;31129;44.810;10.334;2023-06-05T10:11:39;10.23;;;8.60;;
45392;SDS011;31129;44.810;10.334;2023-06-05T10:14:06;9.07;;;8.18;;
45392;SDS011;31129;44.810;10.334;2023-06-05T10:19:00;7.80;;;6.20;;
45392;SDS011;31129;44.810;10.334;2023-06-05T10:21:28;6.50;;;5.90;;
45392;SDS011;31129;44.810;10.334;2023-06-05T10:23:57;6.20;;;5.32;;
45392;SDS011;31129;44.810;10.334;2023-06-05T10:29:04;5.60;;;5.07;;
45392;SDS011;31129;44.810;10.334;2023-06-05T10:31:47;5.60;;;4.68;;
45392;SDS011;31129;44.810;10.334;2023-06-05T10:34:30;4.82;;;4.35;;
45392;SDS011;31129;44.810;10.334;2023-06-05T10:37:11;7.40;;;5.13;;
45392;SDS011;31129;44.810;10.334;2023-06-05T10:39:50;7.47;;;6.35;;
45392;SDS011;31129;44.810;10.334;2023-06-05T10:42:22;8.13;;;6.75;;
45392;SDS011;31129;44.810;10.334;2023-06-05T10:44:49;12.13;;;7.45;;
45392;SDS011;31129;44.810;10.334;2023-06-05T10:55:15;9.93;;;7.22;;
45392;SDS011;31129;44.810;10.334;2023-06-05T11:00:28;7.80;;;6.68;;
45392;SDS011;31129;44.810;10.334;2023-06-05T11:02:55;8.10;;;5.00;;
45392;SDS011;31129;44.810;10.334;2023-06-05T11:05:20;8.10;;;5.50;;
45392;SDS011;31129;44.810;10.334;2023-06-05T11:08:09;5.30;;;4.80;;
45392;SDS011;31129;44.810;10.334;2023-06-05T11:13:51;5.60;;;5.10;;
45392;SDS011;31129;44.810;10.334;2023-06-05T11:16:25;6.28;;;5.13;;
45392;SDS011;31129;44.810;10.334;2023-06-05T11:19:09;6.15;;;4.70;;
45392;SDS011;31129;44.810;10.334;2023-06-05T11:24:37;4.75;;;4.28;;
45392;SDS011;31129;44.810;10.334;2023-06-05T11:27:04;7.00;;;5.22;;
45392;SDS011;31129;44.810;10.334;2023-06-05T11:29:31;5.75;;;5.25;;
45392;SDS011;31129;44.810;10.334;2023-06-05T11:31:58;8.07;;;5.70;;
45392;SDS011;31129;44.810;10.334;2023-06-05T11:34:24;9.13;;;6.18;;
45392;SDS011;31129;44.810;10.334;2023-06-05T11:36:50;5.90;;;5.38;;
45392;SDS011;31129;44.810;10.334;2023-06-05T11:39:16;5.90;;;5.30;;
45392;SDS011;31129;44.810;10.334;2023-06-05T11:41:45;5.13;;;4.57;;
45392;SDS011;31129;44.810;10.334;2023-06-05T11:44:12;7.47;;;4.72;;
45392;SDS011;31129;44.810;10.334;2023-06-05T11:46:39;5.30;;;4.80;;
45392;SDS011;31129;44.810;10.334;2023-06-05T11:51:47;7.25;;;6.20;;
45392;SDS011;31129;44.810;10.334;2023-06-05T11:54:22;7.00;;;6.30;;
45392;SDS011;31129;44.810;10.334;2023-06-05T11:56:55;6.32;;;5.72;;
45392;SDS011;31129;44.810;10.334;2023-06-05T11:59:22;6.85;;;5.32;;
45392;SDS011;31129;44.810;10.334;2023-06-05T12:01:49;5.82;;;3.55;;
45392;SDS011;31129;44.810;10.334;2023-06-05T12:04:15;3.50;;;3.20;;
45392;SDS011;31129;44.810;10.334;2023-06-05T12:06:41;4.75;;;3.05;;
45392;SDS011;31129;44.810;10.334;2023-06-05T12:09:12;3.40;;;3.10;;
45392;SDS011;31129;44.810;10.334;2023-06-05T12:11:39;3.53;;;3.22;;
45392;SDS011;31129;44.810;10.334;2023-06-05T12:14:05;6.50;;;3.50;;
45392;SDS011;31129;44.810;10.334;2023-06-05T12:16:41;4.25;;;3.85;;
45392;SDS011;31129;44.810;10.334;2023-06-05T12:19:11;5.20;;;3.83;;
45392;SDS011;31129;44.810;10.334;2023-06-05T12:21:38;4.10;;;3.40;;
45392;SDS011;31129;44.810;10.334;2023-06-05T12:24:04;4.40;;;3.95;;
45392;SDS011;31129;44.810;10.334;2023-06-05T12:31:44;2.90;;;2.63;;
45392;SDS011;31129;44.810;10.334;2023-06-05T12:34:15;3.70;;;3.17;;
45392;SDS011;31129;44.810;10.334;2023-06-05T12:36:41;4.20;;;3.05;;
45392;SDS011;31129;44.810;10.334;2023-06-05T12:39:14;6.88;;;3.20;;
45392;SDS011;31129;44.810;10.334;2023-06-05T12:41:41;6.60;;;2.95;;
45392;SDS011;31129;44.810;10.334;2023-06-05T12:44:07;4.45;;;3.17;;
45392;SDS011;31129;44.810;10.334;2023-06-05T12:46:34;2.58;;;2.13;;
45392;SDS011;31129;44.810;10.334;2023-06-05T12:49:00;3.00;;;2.45;;
45392;SDS011;31129;44.810;10.334;2023-06-05T12:51:27;2.40;;;2.20;;
45392;SDS011;31129;44.810;10.334;2023-06-05T12:53:53;4.25;;;2.85;;
45392;SDS011;31129;44.810;10.334;2023-06-05T12:56:22;5.57;;;2.50;;
45392;SDS011;31129;44.810;10.334;2023-06-05T12:58:55;3.22;;;2.83;;
45392;SDS011;31129;44.810;10.334;2023-06-05T13:01:22;4.93;;;2.63;;
45392;SDS011;31129;44.810;10.334;2023-06-05T13:03:49;4.90;;;2.40;;
45392;SDS011;31129;44.810;10.334;2023-06-05T13:06:15;7.63;;;2.65;;
45392;SDS011;31129;44.810;10.334;2023-06-05T13:08:40;2.95;;;2.45;;
45392;SDS011;31129;44.810;10.334;2023-06-05T13:11:06;2.35;;;1.90;;
45392;SDS011;31129;44.810;10.334;2023-06-05T13:13:31;5.15;;;2.28;;
45392;SDS011;31129;44.810;10.334;2023-06-05T13:16:00;5.18;;;2.47;;
45392;SDS011;31129;44.810;10.334;2023-06-05T13:18:27;3.47;;;2.50;;
45392;SDS011;31129;44.810;10.334;2023-06-05T13:20:54;2.65;;;2.17;;
45392;SDS011;31129;44.810;10.334;2023-06-05T13:23:19;4.60;;;3.10;;
45392;SDS011;31129;44.810;10.334;2023-06-05T13:25:45;4.18;;;3.63;;
45392;SDS011;31129;44.810;10.334;2023-06-05T13:28:10;5.28;;;3.80;;
45392;SDS011;31129;44.810;10.334;2023-06-05T13:30:36;4.57;;;3.25;;
45392;SDS011;31129;44.810;10.334;2023-06-05T13:33:02;5.32;;;3.05;;
45392;SDS011;31129;44.810;10.334;2023-06-05T13:35:27;3.97;;;2.63;;
45392;SDS011;31129;44.810;10.334;2023-06-05T13:37:53;4.47;;;2.58;;
45392;SDS011;31129;44.810;10.334;2023-06-05T13:40:18;7.50;;;2.78;;
45392;SDS011;31129;44.810;10.334;2023-06-05T13:42:44;5.97;;;2.95;;
45392;SDS011;31129;44.810;10.334;2023-06-05T13:45:09;3.45;;;3.08;;
45392;SDS011;31129;44.810;10.334;2023-06-05T13:47:35;2.63;;;2.42;;
45392;SDS011;31129;44.810;10.334;2023-06-05T13:50:01;2.10;;;2.00;;
45392;SDS011;31129;44.810;10.334;2023-06-05T13:52:27;7.70;;;1.98;;
45392;SDS011;31129;44.810;10.334;2023-06-05T13:54:53;2.00;;;1.90;;
45392;SDS011;31129;44.810;10.334;2023-06-05T13:57:18;3.78;;;2.15;;
45392;SDS011;31129;44.810;10.334;2023-06-05T13:59:44;6.20;;;2.25;;
45392;SDS011;31129;44.810;10.334;2023-06-05T14:02:10;2.65;;;2.08;;
45392;SDS011;31129;44.810;10.334;2023-06-05T14:04:36;6.07;;;3.75;;
45392;SDS011;31129;44.810;10.334;2023-06-05T14:07:02;5.38;;;2.80;;
45392;SDS011;31129;44.810;10.334;2023-06-05T14:09:28;5.18;;;2.78;;
45392;SDS011;31129;44.810;10.334;2023-06-05T14:11:54;4.13;;;2.50;;
45392;SDS011;31129;44.810;10.334;2023-06-05T14:14:21;2.22;;;2.00;;
45392;SDS011;31129;44.810;10.334;2023-06-05T14:16:48;2.35;;;2.15;;
45392;SDS011;31129;44.810;10.334;2023-06-05T14:19:13;4.47;;;1.80;;
45392;SDS011;31129;44.810;10.334;2023-06-05T14:21:38;6.75;;;1.65;;
45392;SDS011;31129;44.810;10.334;2023-06-05T14:24:05;1.50;;;1.40;;
45392;SDS011;31129;44.810;10.334;2023-06-05T14:26:31;3.78;;;1.90;;
45392;SDS011;31129;44.810;10.334;2023-06-05T14:28:56;1.65;;;1.55;;
45392;SDS011;31129;44.810;10.334;2023-06-05T14:31:22;3.28;;;1.60;;
45392;SDS011;31129;44.810;10.334;2023-06-05T14:33:50;3.20;;;2.00;;
45392;SDS011;31129;44.810;10.334;2023-06-05T14:36:16;3.10;;;2.08;;
45392;SDS011;31129;44.810;10.334;2023-06-05T14:38:42;4.35;;;2.30;;
45392;SDS011;31129;44.810;10.334;2023-06-05T14:41:07;2.40;;;2.20;;
45392;SDS011;31129;44.810;10.334;2023-06-05T14:43:33;3.00;;;2.38;;
45392;SDS011;31129;44.810;10.334;2023-06-05T14:45:58;3.47;;;2.70;;
45392;SDS011;31129;44.810;10.334;2023-06-05T14:48:25;5.43;;;2.50;;
45392;SDS011;31129;44.810;10.334;2023-06-05T14:50:51;4.18;;;2.70;;
45392;SDS011;31129;44.810;10.334;2023-06-05T14:53:18;3.40;;;2.38;;
45392;SDS011;31129;44.810;10.334;2023-06-05T14:55:44;3.78;;;2.55;;
45392;SDS011;31129;44.810;10.334;2023-06-05T14:58:10;4.63;;;2.90;;
45392;SDS011;31129;44.810;10.334;2023-06-05T15:00:36;2.75;;;2.53;;
45392;SDS011;31129;44.810;10.334;2023-06-05T15:03:05;5.22;;;2.88;;
45392;SDS011;31129;44.810;10.334;2023-06-05T15:05:31;2.65;;;2.45;;
45392;SDS011;31129;44.810;10.334;2023-06-05T15:07:57;5.20;;;2.33;;
45392;SDS011;31129;44.810;10.334;2023-06-05T15:10:24;3.05;;;2.75;;
45392;SDS011;31129;44.810;10.334;2023-06-05T15:12:51;5.63;;;3.10;;
45392;SDS011;31129;44.810;10.334;2023-06-05T15:15:21;6.47;;;2.85;;
45392;SDS011;31129;44.810;10.334;2023-06-05T15:17:47;9.73;;;3.60;;
45392;SDS011;31129;44.810;10.334;2023-06-05T15:20:13;5.78;;;3.90;;
45392;SDS011;31129;44.810;10.334;2023-06-05T15:22:39;10.50;;;5.20;;